createdAt,value
2022-09-05T00:03:37.198Z,101821.09
2022-09-05T00:08:05.722Z,101827.28
2022-09-05T00:12:30.441Z,101831.16
2022-09-05T00:16:59.838Z,101832.47
2022-09-05T00:24:19.421Z,101829.66
2022-09-05T00:26:28.648Z,101821.09
2022-09-05T00:31:53.587Z,101820.84
2022-09-05T00:36:28.188Z,101819.81
2022-09-05T00:40:57.231Z,101817.13
2022-09-05T00:45:31.246Z,101824.31
2022-09-05T00:50:07.693Z,101815.34
2022-09-05T00:54:40.450Z,101812.81
2022-09-05T00:59:23.408Z,101803.69
2022-09-05T01:04:32.701Z,101798.19
2022-09-05T01:09:08.014Z,101811.84
2022-09-05T01:14:09.195Z,101808.91
2022-09-05T01:18:50.945Z,101806.81
2022-09-05T01:23:37.095Z,101806.03
2022-09-05T01:29:13.614Z,101806.03
2022-09-05T01:32:56.782Z,101808.81
2022-09-05T01:37:42.419Z,101808.69
2022-09-05T01:42:23.360Z,101799.81
2022-09-05T01:47:10.158Z,101810.47
2022-09-05T01:52:00.008Z,101809.78
2022-09-05T01:56:28.622Z,101810.78
2022-09-05T02:01:32.058Z,101807.25
2022-09-05T02:06:08.027Z,101800.78
2022-09-05T02:10:55.382Z,101805.94
2022-09-05T02:15:22.288Z,101799.78
2022-09-05T02:19:50.527Z,101800.31
2022-09-05T02:24:23.452Z,101798.94
2022-09-05T02:28:49.783Z,101814.09
2022-09-05T02:33:32.090Z,101812.59
2022-09-05T02:41:24.513Z,101806.81
2022-09-05T02:45:09.109Z,101808.09
2022-09-05T02:47:54.791Z,101795.63
2022-09-05T02:57:30.241Z,101790.13
2022-09-05T02:57:34.404Z,101782.00
2022-09-05T03:02:26.540Z,101785.47
2022-09-05T03:07:30.003Z,101785.16
2022-09-05T03:12:49.196Z,101765.81
2022-09-05T03:17:38.917Z,101765.97
2022-09-05T03:22:08.557Z,101775.53
2022-09-05T03:26:47.330Z,101784.34
2022-09-05T03:31:40.051Z,101776.88
2022-09-05T03:36:19.039Z,101771.03
2022-09-05T03:41:01.050Z,101758.38
2022-09-05T03:45:37.749Z,101764.63
2022-09-05T03:54:22.933Z,101763.78
2022-09-05T03:57:10.814Z,101771.75
2022-09-05T04:00:34.887Z,101774.53
2022-09-05T04:08:17.040Z,101761.44
2022-09-05T04:09:57.551Z,101770.50
2022-09-05T04:14:59.351Z,101772.78
2022-09-05T04:19:40.648Z,101775.41
2022-09-05T04:24:31.337Z,101767.50
2022-09-05T04:29:15.151Z,101771.84
2022-09-05T04:33:46.322Z,101769.00
2022-09-05T04:38:36.685Z,101778.16
2022-09-05T04:43:05.083Z,101796.00
2022-09-05T04:47:31.294Z,101790.66
2022-09-05T04:52:23.609Z,101788.56
2022-09-05T04:57:02.212Z,101809.63
2022-09-05T05:06:01.308Z,101830.53
2022-09-05T05:06:46.119Z,101836.81
2022-09-05T05:17:53.747Z,101860.59
2022-09-05T05:18:16.250Z,101880.78
2022-09-05T05:21:24.755Z,101879.13
2022-09-05T05:25:55.532Z,101889.94
2022-09-05T05:30:27.944Z,101891.03
2022-09-05T05:34:54.110Z,101897.63
2022-09-05T05:39:23.961Z,101899.56
2022-09-05T05:43:46.833Z,101898.66
2022-09-05T05:48:19.814Z,101914.75
2022-09-05T05:53:07.258Z,101917.47
2022-09-05T05:57:54.034Z,101919.28
2022-09-05T06:03:09.765Z,101928.78
2022-09-05T06:10:39.043Z,101928.13
2022-09-05T06:14:57.995Z,101920.47
2022-09-05T06:18:29.038Z,101941.56
2022-09-05T06:23:45.140Z,101933.47
2022-09-05T06:28:22.611Z,101940.56
2022-09-05T06:32:58.814Z,101942.22
2022-09-05T06:37:41.185Z,101948.41
2022-09-05T06:42:30.643Z,101943.69
2022-09-05T06:47:22.722Z,101951.56
2022-09-05T06:52:16.594Z,101951.94
2022-09-05T06:56:59.822Z,101962.09
2022-09-05T07:01:44.780Z,101966.50
2022-09-05T07:06:19.862Z,101969.41
2022-09-05T07:10:49.099Z,101974.47
2022-09-05T07:15:15.210Z,101967.44
2022-09-05T07:19:44.717Z,101967.28
2022-09-05T07:24:11.336Z,101972.47
2022-09-05T07:28:33.297Z,101971.75
2022-09-05T07:32:58.791Z,101974.41
2022-09-05T07:37:46.643Z,101976.06
2022-09-05T07:42:14.327Z,101966.81
2022-09-05T07:46:39.687Z,101975.75
2022-09-05T07:55:49.315Z,101974.63
2022-09-05T07:57:01.707Z,101974.59
2022-09-05T08:00:31.262Z,101970.72
2022-09-05T08:04:51.595Z,101970.75
2022-09-05T08:10:05.558Z,101968.53
2022-09-05T08:14:43.518Z,101977.25
2022-09-05T08:19:21.534Z,101979.38
2022-09-05T08:23:51.071Z,101972.09
2022-09-05T08:28:14.035Z,101964.28
2022-09-05T08:32:40.603Z,101966.03
2022-09-05T08:37:01.857Z,101963.09
2022-09-05T08:41:49.920Z,101956.41
2022-09-05T08:46:44.585Z,101951.44
2022-09-05T08:51:19.991Z,101948.78
2022-09-05T08:56:11.145Z,101954.94
2022-09-05T09:00:55.765Z,101942.28
2022-09-05T09:06:12.870Z,101935.44
2022-09-05T09:10:46.271Z,101935.44
2022-09-05T09:15:35.451Z,101935.66
2022-09-05T09:20:22.883Z,101932.19
2022-09-05T09:25:15.194Z,101927.66
2022-09-05T09:29:40.331Z,101918.69
2022-09-05T09:34:38.335Z,101914.31
2022-09-05T09:39:11.630Z,101910.34
2022-09-05T09:44:11.735Z,101908.06
2022-09-05T09:48:51.668Z,101903.25
2022-09-05T09:53:14.520Z,101894.38
2022-09-05T09:57:47.325Z,101895.66
2022-09-05T10:02:26.779Z,101890.34
2022-09-05T10:10:44.491Z,101886.38
2022-09-05T10:12:17.757Z,101880.06
2022-09-05T10:16:53.962Z,101870.94
2022-09-05T10:21:36.703Z,101870.38
2022-09-05T10:26:25.186Z,101877.75
2022-09-05T10:32:34.670Z,101876.84
2022-09-05T10:36:24.943Z,101868.72
2022-09-05T10:41:20.171Z,101874.00
2022-09-05T10:45:57.613Z,101860.41
2022-09-05T10:50:27.568Z,101860.78
2022-09-05T10:55:14.725Z,101864.69
2022-09-05T11:02:20.929Z,101857.97
2022-09-05T11:04:50.332Z,101853.28
2022-09-05T11:09:26.642Z,101857.63
2022-09-05T11:13:50.363Z,101856.44
2022-09-05T11:18:23.683Z,101848.91
2022-09-05T11:23:08.938Z,101845.72
2022-09-05T11:27:37.419Z,101848.75
2022-09-05T11:34:24.692Z,101834.44
2022-09-05T11:39:52.457Z,101836.75
2022-09-05T11:42:21.190Z,101836.25
2022-09-05T11:47:28.216Z,101844.38
2022-09-05T11:51:51.263Z,101841.69
2022-09-05T11:56:34.116Z,101840.72
2022-09-05T12:01:44.075Z,101826.28
2022-09-05T12:06:21.353Z,101815.59
2022-09-05T12:10:48.406Z,101821.84
2022-09-05T12:15:21.574Z,101822.31
2022-09-05T12:19:47.631Z,101816.31
2022-09-05T12:25:17.182Z,101811.84
2022-09-05T12:29:33.965Z,101810.63
2022-09-05T12:36:06.370Z,101808.53
2022-09-05T12:40:57.849Z,101807.06
2022-09-05T12:44:36.622Z,101799.69
2022-09-05T12:48:11.431Z,101787.66
2022-09-05T12:52:34.006Z,101791.06
2022-09-05T13:00:05.608Z,101780.59
2022-09-05T13:03:12.781Z,101778.84
2022-09-05T13:06:47.105Z,101782.31
2022-09-05T13:14:47.604Z,101773.34
2022-09-05T13:15:53.860Z,101772.47
2022-09-05T13:20:36.922Z,101764.59
2022-09-05T13:25:08.709Z,101764.25
2022-09-05T13:31:28.586Z,101761.78
2022-09-05T13:38:10.165Z,101748.72
2022-09-05T13:39:36.484Z,101753.78
2022-09-05T13:44:00.205Z,101743.00
2022-09-05T13:49:27.630Z,101733.38
2022-09-05T13:54:13.299Z,101740.06
2022-09-05T13:58:56.730Z,101745.41
2022-09-05T14:03:44.427Z,101743.31
2022-09-05T14:08:34.039Z,101737.66
2022-09-05T14:13:02.654Z,101731.06
2022-09-05T14:17:53.734Z,101728.16
2022-09-05T14:22:34.880Z,101737.41
2022-09-05T14:27:03.161Z,101723.28
2022-09-05T14:37:36.803Z,101717.28
2022-09-05T14:37:49.993Z,101712.25
2022-09-05T14:41:02.790Z,101722.84
2022-09-05T14:45:17.668Z,101716.94
2022-09-05T14:49:40.717Z,101723.66
2022-09-05T14:54:11.944Z,101716.66
2022-09-05T15:02:42.334Z,101713.50
2022-09-05T15:03:02.619Z,101711.78
2022-09-05T15:07:20.913Z,101711.75
2022-09-05T15:12:21.387Z,101718.00
2022-09-05T15:16:02.542Z,101719.28
2022-09-05T15:20:08.056Z,101717.91
2022-09-05T15:24:31.373Z,101713.81
2022-09-05T15:28:36.186Z,101702.97
2022-09-05T15:32:39.300Z,101692.19
2022-09-05T15:36:41.496Z,101688.88
2022-09-05T15:40:43.822Z,101695.78
2022-09-05T15:45:09.193Z,101688.84
2022-09-05T15:49:49.789Z,101699.97
2022-09-05T15:54:37.729Z,101684.19
2022-09-05T15:58:53.132Z,101690.28
2022-09-05T16:03:55.295Z,101684.19
2022-09-05T16:10:34.100Z,101685.41
2022-09-05T16:12:14.202Z,101689.44
2022-09-05T16:23:11.644Z,101684.53
2022-09-05T16:23:26.017Z,101680.56
2022-09-05T16:25:16.493Z,101686.16
2022-09-05T16:29:26.209Z,101681.31
2022-09-05T16:33:36.487Z,101677.56
2022-09-05T16:38:00.426Z,101676.91
2022-09-05T16:42:20.505Z,101677.56
2022-09-05T16:46:41.956Z,101675.97
2022-09-05T16:50:52.290Z,101677.88
2022-09-05T16:54:58.230Z,101676.63
2022-09-05T16:59:16.097Z,101678.69
2022-09-05T17:03:41.796Z,101679.44
2022-09-05T17:08:06.435Z,101678.84
2022-09-05T17:12:23.705Z,101677.13
2022-09-05T17:16:38.013Z,101683.25
2022-09-05T17:20:42.275Z,101675.75
2022-09-05T17:29:17.372Z,101681.34
2022-09-05T17:31:27.679Z,101688.13
2022-09-05T17:34:32.393Z,101689.75
2022-09-05T17:38:37.204Z,101689.81
2022-09-05T17:42:56.057Z,101686.94
2022-09-05T17:47:10.397Z,101694.81
2022-09-05T17:51:18.100Z,101688.47
2022-09-05T17:55:20.494Z,101694.16
2022-09-05T17:59:24.704Z,101700.44
2022-09-05T18:03:38.719Z,101708.84
2022-09-05T18:07:43.502Z,101704.19
2022-09-05T18:13:11.636Z,101711.03
2022-09-05T18:17:36.235Z,101716.16
2022-09-05T18:26:00.144Z,101711.84
2022-09-05T18:30:10.281Z,101711.06
2022-09-05T18:34:15.687Z,101719.13
2022-09-05T18:38:52.309Z,101725.75
2022-09-05T18:42:53.191Z,101720.44
2022-09-05T18:47:00.526Z,101725.84
2022-09-05T18:51:15.028Z,101723.34
2022-09-05T18:56:09.707Z,101718.59
2022-09-05T18:59:53.771Z,101714.81
2022-09-05T19:04:01.998Z,101709.38
2022-09-05T19:08:29.023Z,101719.19
2022-09-05T19:12:47.879Z,101713.13
2022-09-05T19:17:31.519Z,101702.59
2022-09-05T19:21:34.730Z,101709.50
2022-09-05T19:25:41.505Z,101706.47
2022-09-05T19:36:48.765Z,101716.78
2022-09-05T19:36:57.235Z,101710.13
2022-09-05T19:40:50.190Z,101708.19
2022-09-05T19:47:43.031Z,101708.03
2022-09-05T19:51:56.688Z,101718.38
2022-09-05T19:56:05.904Z,101707.75
2022-09-05T20:00:09.237Z,101713.59
2022-09-05T20:04:18.953Z,101720.34
2022-09-05T20:08:39.286Z,101718.22
2022-09-05T20:12:41.317Z,101720.66
2022-09-05T20:16:43.479Z,101721.75
2022-09-05T20:21:07.830Z,101724.22
2022-09-05T20:25:34.683Z,101718.09
2022-09-05T20:29:54.877Z,101725.97
2022-09-05T20:34:03.445Z,101718.72
2022-09-05T20:43:31.553Z,101722.03
2022-09-05T20:43:35.204Z,101716.50
2022-09-05T20:54:05.002Z,101715.03
2022-09-05T20:54:26.196Z,101715.16
2022-09-05T20:56:32.589Z,101718.31
2022-09-05T21:00:37.649Z,101719.63
2022-09-05T21:04:42.079Z,101715.66
2022-09-05T21:08:44.435Z,101711.53
2022-09-05T21:12:49.064Z,101718.41
2022-09-05T21:17:13.390Z,101717.06
2022-09-05T21:21:30.172Z,101717.19
2022-09-05T21:25:41.394Z,101720.16
2022-09-05T21:29:49.631Z,101715.16
2022-09-05T21:34:02.973Z,101726.72
2022-09-05T21:38:10.636Z,101718.34
2022-09-05T21:43:52.988Z,101728.28
2022-09-05T21:47:49.929Z,101727.91
2022-09-05T21:51:03.952Z,101729.84
2022-09-05T21:59:21.973Z,101728.34
2022-09-05T21:59:40.040Z,101731.13
2022-09-05T22:03:47.319Z,101729.47
2022-09-05T22:07:51.307Z,101732.09
2022-09-05T22:11:56.294Z,101730.56
2022-09-05T22:16:04.676Z,101728.72
2022-09-05T22:20:08.892Z,101721.88
2022-09-05T22:24:11.841Z,101721.00
2022-09-05T22:28:27.334Z,101719.47
2022-09-05T22:32:36.065Z,101714.53
2022-09-05T22:36:38.282Z,101718.13
2022-09-05T22:40:43.705Z,101714.94
2022-09-05T22:44:48.245Z,101715.22
2022-09-05T22:48:56.035Z,101718.78
2022-09-05T22:53:02.962Z,101724.16
2022-09-05T22:57:05.557Z,101720.81
2022-09-05T23:01:08.533Z,101716.56
2022-09-05T23:05:10.955Z,101720.44
2022-09-05T23:09:13.452Z,101721.25
2022-09-05T23:13:15.938Z,101713.66
2022-09-05T23:17:18.107Z,101704.31
2022-09-05T23:21:20.659Z,101707.19
2022-09-05T23:25:23.853Z,101710.25
2022-09-05T23:29:26.391Z,101704.53
2022-09-05T23:33:29.582Z,101693.50
2022-09-05T23:37:31.825Z,101692.25
2022-09-05T23:41:34.035Z,101671.31
2022-09-05T23:45:36.507Z,101673.84
2022-09-05T23:49:38.634Z,101687.78
2022-09-05T23:53:41.760Z,101663.03
2022-09-05T23:57:44.792Z,101677.97
